sensor_id;sensor_type;location;lat;lon;timestamp;pressure;altitude;pressure_sealevel;temperature;humidity
57827;BME280;43656;57.746;11.780;2024-02-15T00:01:57;101453.53;;;3.04;100.00
57827;BME280;43656;57.746;11.780;2024-02-15T00:04:22;101434.63;;;2.97;100.00
57827;BME280;43656;57.746;11.780;2024-02-15T00:06:47;101452.59;;;3.05;100.00
57827;BME280;43656;57.746;11.780;2024-02-15T00:09:13;101459.44;;;3.08;100.00
57827;BME280;43656;57.746;11.780;2024-02-15T00:11:38;101458.03;;;3.03;100.00
57827;BME280;43656;57.746;11.780;2024-02-15T00:14:04;101460.56;;;3.05;100.00
57827;BME280;43656;57.746;11.780;2024-02-15T00:16:30;101462.50;;;3.03;100.00
57827;BME280;43656;57.746;11.780;2024-02-15T00:18:55;101461.94;;;2.99;100.00
57827;BME280;43656;57.746;11.780;2024-02-15T00:21:21;101473.81;;;2.95;100.00
57827;BME280;43656;57.746;11.780;2024-02-15T00:23:48;101456.03;;;2.96;100.00
57827;BME280;43656;57.746;11.780;2024-02-15T00:26:13;101463.19;;;2.95;100.00
57827;BME280;43656;57.746;11.780;2024-02-15T00:28:41;101413.28;;;2.68;100.00
57827;BME280;43656;57.746;11.780;2024-02-15T00:31:06;101458.97;;;2.93;100.00
57827;BME280;43656;57.746;11.780;2024-02-15T00:33:33;101461.75;;;2.91;100.00
57827;BME280;43656;57.746;11.780;2024-02-15T00:35:58;101458.97;;;2.93;100.00
57827;BME280;43656;57.746;11.780;2024-02-15T00:38:24;101460.91;;;2.91;100.00
57827;BME280;43656;57.746;11.780;2024-02-15T00:40:49;101465.97;;;2.94;100.00
57827;BME280;43656;57.746;11.780;2024-02-15T00:43:15;101461.38;;;2.96;100.00
57827;BME280;43656;57.746;11.780;2024-02-15T00:45:40;101461.38;;;2.96;100.00
57827;BME280;43656;57.746;11.780;2024-02-15T00:48:06;101465.00;;;2.95;100.00
57827;BME280;43656;57.746;11.780;2024-02-15T00:50:32;101446.47;;;2.83;100.00
57827;BME280;43656;57.746;11.780;2024-02-15T00:52:57;101463.19;;;2.95;100.00
57827;BME280;43656;57.746;11.780;2024-02-15T00:55:23;101462.34;;;2.95;100.00
57827;BME280;43656;57.746;11.780;2024-02-15T00:57:48;101463.03;;;2.97;100.00
57827;BME280;43656;57.746;11.780;2024-02-15T01:00:14;101470.03;;;2.98;100.00
57827;BME280;43656;57.746;11.780;2024-02-15T01:02:40;101474.66;;;2.96;100.00
57827;BME280;43656;57.746;11.780;2024-02-15T01:05:07;101469.59;;;2.93;100.00
57827;BME280;43656;57.746;11.780;2024-02-15T01:07:32;101469.59;;;2.93;100.00
57827;BME280;43656;57.746;11.780;2024-02-15T01:09:59;101447.16;;;2.76;100.00
57827;BME280;43656;57.746;11.780;2024-02-15T01:12:25;101476.59;;;2.94;100.00
57827;BME280;43656;57.746;11.780;2024-02-15T01:14:50;101473.94;;;2.94;100.00
57827;BME280;43656;57.746;11.780;2024-02-15T01:17:15;101482.19;;;2.91;100.00
57827;BME280;43656;57.746;11.780;2024-02-15T01:19:42;101473.09;;;2.93;100.00
57827;BME280;43656;57.746;11.780;2024-02-15T01:22:07;101461.63;;;2.93;100.00
57827;BME280;43656;57.746;11.780;2024-02-15T01:24:33;101469.88;;;2.90;100.00
57827;BME280;43656;57.746;11.780;2024-02-15T01:26:58;101466.22;;;2.91;100.00
57827;BME280;43656;57.746;11.780;2024-02-15T01:29:24;101459.97;;;2.92;100.00
57827;BME280;43656;57.746;11.780;2024-02-15T01:31:52;101469.59;;;2.93;100.00
57827;BME280;43656;57.746;11.780;2024-02-15T01:34:17;101426.41;;;2.70;100.00
57827;BME280;43656;57.746;11.780;2024-02-15T01:36:43;101463.31;;;2.94;100.00
57827;BME280;43656;57.746;11.780;2024-02-15T01:39:08;101438.06;;;2.78;100.00
57827;BME280;43656;57.746;11.780;2024-02-15T01:41:33;101470.31;;;2.95;100.00
57827;BME280;43656;57.746;11.780;2024-02-15T01:43:59;101471.16;;;2.95;100.00
57827;BME280;43656;57.746;11.780;2024-02-15T01:46:24;101469.59;;;2.93;100.00
57827;BME280;43656;57.746;11.780;2024-02-15T01:48:51;101476.59;;;2.94;100.00
57827;BME280;43656;57.746;11.780;2024-02-15T01:51:16;101475.75;;;2.93;100.00
57827;BME280;43656;57.746;11.780;2024-02-15T01:53:43;101422.28;;;2.56;100.00
57827;BME280;43656;57.746;11.780;2024-02-15T01:56:11;101457.25;;;2.82;100.00
57827;BME280;43656;57.746;11.780;2024-02-15T01:58:39;101473.78;;;2.86;100.00
57827;BME280;43656;57.746;11.780;2024-02-15T02:01:06;101459.91;;;2.82;100.00
57827;BME280;43656;57.746;11.780;2024-02-15T02:03:31;101457.25;;;2.82;100.00
57827;BME280;43656;57.746;11.780;2024-02-15T02:05:57;101450.81;;;2.85;100.00
57827;BME280;43656;57.746;11.780;2024-02-15T02:08:23;101457.00;;;2.85;100.00
57827;BME280;43656;57.746;11.780;2024-02-15T02:10:50;101441.88;;;2.86;100.00
57827;BME280;43656;57.746;11.780;2024-02-15T02:13:15;101439.34;;;2.84;100.00
57827;BME280;43656;57.746;11.780;2024-02-15T02:15:41;101442.81;;;2.85;100.00
57827;BME280;43656;57.746;11.780;2024-02-15T02:18:06;101440.47;;;2.81;100.00
57827;BME280;43656;57.746;11.780;2024-02-15T02:20:34;101445.78;;;2.81;100.00
57827;BME280;43656;57.746;11.780;2024-02-15T02:23:16;101447.47;;;2.82;100.00
57827;BME280;43656;57.746;11.780;2024-02-15T02:25:45;101445.78;;;2.81;100.00
57827;BME280;43656;57.746;11.780;2024-02-15T02:28:14;101443.97;;;2.82;100.00
57827;BME280;43656;57.746;11.780;2024-02-15T02:30:41;101445.91;;;2.80;100.00
57827;BME280;43656;57.746;11.780;2024-02-15T02:33:11;101419.16;;;2.72;100.00
57827;BME280;43656;57.746;11.780;2024-02-15T02:35:36;101397.72;;;2.64;100.00
57827;BME280;43656;57.746;11.780;2024-02-15T02:38:03;101424.22;;;2.75;100.00
57827;BME280;43656;57.746;11.780;2024-02-15T02:40:29;101413.13;;;2.70;100.00
57827;BME280;43656;57.746;11.780;2024-02-15T02:42:55;101421.25;;;2.78;100.00
57827;BME280;43656;57.746;11.780;2024-02-15T02:45:21;101417.75;;;2.77;100.00
57827;BME280;43656;57.746;11.780;2024-02-15T02:47:49;101426.47;;;2.79;100.00
57827;BME280;43656;57.746;11.780;2024-02-15T02:50:15;101421.56;;;2.75;100.00
57827;BME280;43656;57.746;11.780;2024-02-15T02:52:41;101433.44;;;2.80;100.00
57827;BME280;43656;57.746;11.780;2024-02-15T02:55:07;101430.09;;;2.78;100.00
57827;BME280;43656;57.746;11.780;2024-02-15T02:57:42;101412.28;;;2.69;100.00
57827;BME280;43656;57.746;11.780;2024-02-15T03:00:09;101433.28;;;2.72;100.00
57827;BME280;43656;57.746;11.780;2024-02-15T03:02:47;101426.00;;;2.74;100.00
57827;BME280;43656;57.746;11.780;2024-02-15T03:05:13;101427.41;;;2.69;100.00
57827;BME280;43656;57.746;11.780;2024-02-15T03:07:40;101427.13;;;2.72;100.00
57827;BME280;43656;57.746;11.780;2024-02-15T03:10:11;101414.06;;;2.59;100.00
57827;BME280;43656;57.746;11.780;2024-02-15T03:12:39;101439.16;;;2.76;100.00
57827;BME280;43656;57.746;11.780;2024-02-15T03:15:07;101435.53;;;2.77;100.00
57827;BME280;43656;57.746;11.780;2024-02-15T03:17:40;101440.72;;;2.78;100.00
57827;BME280;43656;57.746;11.780;2024-02-15T03:20:10;101413.66;;;2.64;100.00
57827;BME280;43656;57.746;11.780;2024-02-15T03:23:02;101427.56;;;2.77;100.00
57827;BME280;43656;57.746;11.780;2024-02-15T03:25:28;101433.97;;;2.74;100.00
57827;BME280;43656;57.746;11.780;2024-02-15T03:27:58;101442.09;;;2.73;100.00
57827;BME280;43656;57.746;11.780;2024-02-15T03:30:30;101423.28;;;2.65;100.00
57827;BME280;43656;57.746;11.780;2024-02-15T03:32:57;101444.34;;;2.77;100.00
57827;BME280;43656;57.746;11.780;2024-02-15T03:35:24;101437.75;;;2.72;100.00
57827;BME280;43656;57.746;11.780;2024-02-15T03:37:50;101450.50;;;2.78;100.00
57827;BME280;43656;57.746;11.780;2024-02-15T03:40:18;101451.03;;;2.72;100.00
57827;BME280;43656;57.746;11.780;2024-02-15T03:42:44;101454.66;;;2.71;100.00
57827;BME280;43656;57.746;11.780;2024-02-15T03:45:10;101429.47;;;2.65;100.00
57827;BME280;43656;57.746;11.780;2024-02-15T03:47:37;101437.44;;;2.65;100.00
57827;BME280;43656;57.746;11.780;2024-02-15T03:50:08;101426.81;;;2.65;100.00
57827;BME280;43656;57.746;11.780;2024-02-15T03:52:35;101440.78;;;2.67;100.00
57827;BME280;43656;57.746;11.780;2024-02-15T03:55:01;101418.06;;;2.53;100.00
57827;BME280;43656;57.746;11.780;2024-02-15T03:57:27;101443.44;;;2.67;100.00
57827;BME280;43656;57.746;11.780;2024-02-15T03:59:53;101441.78;;;2.66;100.00
57827;BME280;43656;57.746;11.780;2024-02-15T04:02:20;101435.06;;;2.62;100.00
57827;BME280;43656;57.746;11.780;2024-02-15T04:04:45;101450.28;;;2.60;100.00
57827;BME280;43656;57.746;11.780;2024-02-15T04:07:15;101445.41;;;2.65;100.00
57827;BME280;43656;57.746;11.780;2024-02-15T04:09:43;101446.25;;;2.66;100.00
57827;BME280;43656;57.746;11.780;2024-02-15T04:12:16;101443.72;;;2.64;100.00
57827;BME280;43656;57.746;11.780;2024-02-15T04:14:47;101449.88;;;2.65;100.00
57827;BME280;43656;57.746;11.780;2024-02-15T04:17:13;101449.03;;;2.64;100.00
57827;BME280;43656;57.746;11.780;2024-02-15T04:19:47;101453.38;;;2.65;100.00
57827;BME280;43656;57.746;11.780;2024-02-15T04:22:13;101450.00;;;2.63;100.00
57827;BME280;43656;57.746;11.780;2024-02-15T04:24:41;101424.75;;;2.48;100.00
57827;BME280;43656;57.746;11.780;2024-02-15T04:27:07;101443.97;;;2.61;100.00
57827;BME280;43656;57.746;11.780;2024-02-15T04:29:42;101445.94;;;2.59;100.00
57827;BME280;43656;57.746;11.780;2024-02-15T04:32:09;101438.09;;;2.57;100.00
57827;BME280;43656;57.746;11.780;2024-02-15T04:34:36;101439.19;;;2.55;100.00
57827;BME280;43656;57.746;11.780;2024-02-15T04:37:03;101429.09;;;2.49;100.00
57827;BME280;43656;57.746;11.780;2024-02-15T04:39:32;101453.91;;;2.59;100.00
57827;BME280;43656;57.746;11.780;2024-02-15T04:41:58;101445.38;;;2.55;100.00
57827;BME280;43656;57.746;11.780;2024-02-15T04:44:23;101437.41;;;2.55;100.00
57827;BME280;43656;57.746;11.780;2024-02-15T04:46:52;101441.84;;;2.55;100.00
57827;BME280;43656;57.746;11.780;2024-02-15T04:49:19;101440.31;;;2.52;100.00
57827;BME280;43656;57.746;11.780;2024-02-15T04:51:46;101425.88;;;2.45;100.00
57827;BME280;43656;57.746;11.780;2024-02-15T04:54:13;101446.63;;;2.61;100.00
57827;BME280;43656;57.746;11.780;2024-02-15T04:56:39;101437.00;;;2.60;100.00
57827;BME280;43656;57.746;11.780;2024-02-15T04:59:05;101438.91;;;2.58;100.00
57827;BME280;43656;57.746;11.780;2024-02-15T05:01:34;101444.22;;;2.58;100.00
57827;BME280;43656;57.746;11.780;2024-02-15T05:04:01;101439.06;;;2.56;100.00
57827;BME280;43656;57.746;11.780;2024-02-15T05:06:29;101445.94;;;2.59;100.00
57827;BME280;43656;57.746;11.780;2024-02-15T05:08:55;101445.78;;;2.61;100.00
57827;BME280;43656;57.746;11.780;2024-02-15T05:11:21;101447.34;;;2.63;100.00
57827;BME280;43656;57.746;11.780;2024-02-15T05:13:48;101439.91;;;2.57;100.00
57827;BME280;43656;57.746;11.780;2024-02-15T05:16:17;101450.72;;;2.65;100.00
57827;BME280;43656;57.746;11.780;2024-02-15T05:18:42;101444.56;;;2.65;100.00
57827;BME280;43656;57.746;11.780;2024-02-15T05:21:08;101429.53;;;2.54;100.00
57827;BME280;43656;57.746;11.780;2024-02-15T05:23:38;101442.31;;;2.60;100.00
57827;BME280;43656;57.746;11.780;2024-02-15T05:26:05;101436.25;;;2.58;100.00
57827;BME280;43656;57.746;11.780;2024-02-15T05:28:31;101433.28;;;2.51;100.00
57827;BME280;43656;57.746;11.780;2024-02-15T05:31:19;101426.56;;;2.47;100.00
57827;BME280;43656;57.746;11.780;2024-02-15T05:33:52;101432.72;;;2.48;100.00
57827;BME280;43656;57.746;11.780;2024-02-15T05:36:20;101431.88;;;2.47;100.00
57827;BME280;43656;57.746;11.780;2024-02-15T05:38:53;101441.41;;;2.50;100.00
57827;BME280;43656;57.746;11.780;2024-02-15T05:41:19;101440.56;;;2.49;100.00
57827;BME280;43656;57.746;11.780;2024-02-15T05:43:45;101445.88;;;2.49;100.00
57827;BME280;43656;57.746;11.780;2024-02-15T05:46:13;101417.53;;;2.29;100.00
57827;BME280;43656;57.746;11.780;2024-02-15T05:48:40;101455.66;;;2.49;100.00
57827;BME280;43656;57.746;11.780;2024-02-15T05:51:07;101448.91;;;2.45;100.00
57827;BME280;43656;57.746;11.780;2024-02-15T05:53:33;101455.94;;;2.46;100.00
57827;BME280;43656;57.746;11.780;2024-02-15T05:56:06;101450.03;;;2.42;100.00
57827;BME280;43656;57.746;11.780;2024-02-15T05:58:38;101451.31;;;2.48;100.00
57827;BME280;43656;57.746;11.780;2024-02-15T06:01:05;101450.72;;;2.44;100.00
57827;BME280;43656;57.746;11.780;2024-02-15T06:03:33;101449.47;;;2.39;100.00
57827;BME280;43656;57.746;11.780;2024-02-15T06:06:03;101450.56;;;2.36;100.00
57827;BME280;43656;57.746;11.780;2024-02-15T06:08:33;101451.25;;;2.38;100.00
57827;BME280;43656;57.746;11.780;2024-02-15T06:10:59;101439.03;;;2.26;100.00
57827;BME280;43656;57.746;11.780;2024-02-15T06:13:25;101454.88;;;2.37;100.00
57827;BME280;43656;57.746;11.780;2024-02-15T06:15:51;101465.50;;;2.37;100.00
57827;BME280;43656;57.746;11.780;2024-02-15T06:18:20;101454.44;;;2.32;100.00
57827;BME280;43656;57.746;11.780;2024-02-15T06:20:53;101465.50;;;2.37;100.00
57827;BME280;43656;57.746;11.780;2024-02-15T06:23:19;101458.63;;;2.34;100.00
57827;BME280;43656;57.746;11.780;2024-02-15T06:25:47;101437.88;;;2.19;100.00
57827;BME280;43656;57.746;11.780;2024-02-15T06:28:16;101449.41;;;2.29;100.00
57827;BME280;43656;57.746;11.780;2024-02-15T06:31:04;101441.44;;;2.29;100.00
57827;BME280;43656;57.746;11.780;2024-02-15T06:33:49;101440.13;;;2.23;100.00
57827;BME280;43656;57.746;11.780;2024-02-15T06:36:34;101455.22;;;2.23;100.00
57827;BME280;43656;57.746;11.780;2024-02-15T06:39:18;101410.84;;;1.93;100.00
57827;BME280;43656;57.746;11.780;2024-02-15T06:42:02;101450.75;;;2.23;100.00
57827;BME280;43656;57.746;11.780;2024-02-15T06:44:28;101452.41;;;2.24;100.00
57827;BME280;43656;57.746;11.780;2024-02-15T06:46:55;101463.63;;;2.28;100.00
57827;BME280;43656;57.746;11.780;2024-02-15T06:49:22;101451.19;;;2.28;100.00
57827;BME280;43656;57.746;11.780;2024-02-15T06:51:50;101460.84;;;2.29;100.00
57827;BME280;43656;57.746;11.780;2024-02-15T06:54:16;101456.97;;;2.33;100.00
57827;BME280;43656;57.746;11.780;2024-02-15T06:56:46;101308.97;;;1.31;100.00
57827;BME280;43656;57.746;11.780;2024-02-15T06:59:13;101456.63;;;2.27;100.00
57827;BME280;43656;57.746;11.780;2024-02-15T07:01:43;101456.16;;;2.22;100.00
57827;BME280;43656;57.746;11.780;2024-02-15T07:04:09;101480.13;;;2.31;100.00
57827;BME280;43656;57.746;11.780;2024-02-15T07:06:38;101476.53;;;2.32;100.00
57827;BME280;43656;57.746;11.780;2024-02-15T07:09:04;101483.25;;;2.37;100.00
57827;BME280;43656;57.746;11.780;2024-02-15T07:11:34;101483.25;;;2.37;100.00
57827;BME280;43656;57.746;11.780;2024-02-15T07:14:00;101477.81;;;2.38;100.00
57827;BME280;43656;57.746;11.780;2024-02-15T07:16:26;101480.59;;;2.37;100.00
57827;BME280;43656;57.746;11.780;2024-02-15T07:18:51;101469.84;;;2.38;100.00
57827;BME280;43656;57.746;11.780;2024-02-15T07:21:19;101469.97;;;2.37;100.00
57827;BME280;43656;57.746;11.780;2024-02-15T07:23:48;101474.78;;;2.43;100.00
57827;BME280;43656;57.746;11.780;2024-02-15T07:26:13;101478.03;;;2.46;100.00
57827;BME280;43656;57.746;11.780;2024-02-15T07:28:40;101470.56;;;2.40;100.00
57827;BME280;43656;57.746;11.780;2024-02-15T07:31:06;101480.28;;;2.51;100.00
57827;BME280;43656;57.746;11.780;2024-02-15T07:33:32;101449.41;;;2.29;100.00
57827;BME280;43656;57.746;11.780;2024-02-15T07:35:57;101480.28;;;2.51;100.00
57827;BME280;43656;57.746;11.780;2024-02-15T07:38:22;101474.97;;;2.51;100.00
57827;BME280;43656;57.746;11.780;2024-02-15T07:40:49;101474.59;;;2.55;100.00
57827;BME280;43656;57.746;11.780;2024-02-15T07:43:15;101444.97;;;2.39;100.00
57827;BME280;43656;57.746;11.780;2024-02-15T07:45:40;101471.06;;;2.55;100.00
57827;BME280;43656;57.746;11.780;2024-02-15T07:48:07;101471.28;;;2.63;100.00
57827;BME280;43656;57.746;11.780;2024-02-15T07:50:34;101462.56;;;2.61;100.00
57827;BME280;43656;57.746;11.780;2024-02-15T07:53:03;101464.97;;;2.64;100.00
57827;BME280;43656;57.746;11.780;2024-02-15T07:55:28;101427.53;;;2.46;100.00
57827;BME280;43656;57.746;11.780;2024-02-15T07:57:54;101450.19;;;2.71;100.00
57827;BME280;43656;57.746;11.780;2024-02-15T08:00:21;101454.66;;;2.71;100.00
57827;BME280;43656;57.746;11.780;2024-02-15T08:02:46;101462.00;;;2.78;100.00
57827;BME280;43656;57.746;11.780;2024-02-15T08:05:13;101444.44;;;2.66;100.00
57827;BME280;43656;57.746;11.780;2024-02-15T08:07:46;101453.34;;;2.86;100.00
57827;BME280;43656;57.746;11.780;2024-02-15T08:10:15;101451.66;;;2.85;100.00
57827;BME280;43656;57.746;11.780;2024-02-15T08:12:45;101457.81;;;2.86;100.00
57827;BME280;43656;57.746;11.780;2024-02-15T08:15:12;101459.91;;;2.82;100.00
57827;BME280;43656;57.746;11.780;2024-02-15T08:17:45;101455.28;;;2.84;100.00
57827;BME280;43656;57.746;11.780;2024-02-15T08:20:14;101448.16;;;2.85;100.00
57827;BME280;43656;57.746;11.780;2024-02-15T08:22:40;101447.19;;;2.86;100.00
57827;BME280;43656;57.746;11.780;2024-02-15T08:25:12;101441.72;;;2.87;100.00
57827;BME280;43656;57.746;11.780;2024-02-15T08:27:43;101444.00;;;2.92;100.00
57827;BME280;43656;57.746;11.780;2024-02-15T08:30:13;101442.50;;;2.99;100.00
57827;BME280;43656;57.746;11.780;2024-02-15T08:32:43;101430.16;;;2.98;100.00
57827;BME280;43656;57.746;11.780;2024-02-15T08:35:09;101426.53;;;2.99;100.00
57827;BME280;43656;57.746;11.780;2024-02-15T08:37:36;101425.75;;;3.08;100.00
57827;BME280;43656;57.746;11.780;2024-02-15T08:40:04;101434.94;;;3.04;100.00
57827;BME280;43656;57.746;11.780;2024-02-15T08:42:30;101426.56;;;3.09;100.00
57827;BME280;43656;57.746;11.780;2024-02-15T08:44:56;101424.44;;;3.02;100.00
57827;BME280;43656;57.746;11.780;2024-02-15T08:47:22;101417.00;;;2.96;100.00
57827;BME280;43656;57.746;11.780;2024-02-15T08:49:47;101421.25;;;3.09;100.00
57827;BME280;43656;57.746;11.780;2024-02-15T08:52:12;101416.50;;;3.12;100.00
57827;BME280;43656;57.746;11.780;2024-02-15T08:54:38;101419.47;;;3.19;100.00
57827;BME280;43656;57.746;11.780;2024-02-15T08:57:04;101421.44;;;3.26;100.00
57827;BME280;43656;57.746;11.780;2024-02-15T08:59:30;101424.81;;;3.28;100.00
57827;BME280;43656;57.746;11.780;2024-02-15T09:01:55;101409.81;;;3.27;100.00
57827;BME280;43656;57.746;11.780;2024-02-15T09:04:22;101422.00;;;3.30;100.00
57827;BME280;43656;57.746;11.780;2024-02-15T09:06:51;101419.06;;;3.33;100.00
57827;BME280;43656;57.746;11.780;2024-02-15T09:09:17;101413.44;;;3.26;100.00
57827;BME280;43656;57.746;11.780;2024-02-15T09:11:43;101431.13;;;3.47;100.00
57827;BME280;43656;57.746;11.780;2024-02-15T09:14:08;101431.41;;;3.44;100.00
57827;BME280;43656;57.746;11.780;2024-02-15T09:16:36;101426.91;;;3.44;100.00
57827;BME280;43656;57.746;11.780;2024-02-15T09:19:02;101419.09;;;3.52;100.00
57827;BME280;43656;57.746;11.780;2024-02-15T09:21:28;101418.69;;;3.57;100.00
57827;BME280;43656;57.746;11.780;2024-02-15T09:23:54;101414.78;;;3.51;100.00
57827;BME280;43656;57.746;11.780;2024-02-15T09:26:20;101431.31;;;3.55;100.00
57827;BME280;43656;57.746;11.780;2024-02-15T09:28:45;101426.53;;;3.59;100.00
57827;BME280;43656;57.746;11.780;2024-02-15T09:31:14;101410.13;;;3.53;100.00
57827;BME280;43656;57.746;11.780;2024-02-15T09:33:40;101441.81;;;3.76;100.00
57827;BME280;43656;57.746;11.780;2024-02-15T09:36:07;101439.59;;;3.71;100.00
57827;BME280;43656;57.746;11.780;2024-02-15T09:38:33;101435.94;;;3.72;100.00
57827;BME280;43656;57.746;11.780;2024-02-15T09:41:04;101440.97;;;3.75;100.00
57827;BME280;43656;57.746;11.780;2024-02-15T09:43:34;101453.00;;;3.70;100.00
57827;BME280;43656;57.746;11.780;2024-02-15T09:46:00;101454.28;;;3.66;100.00
57827;BME280;43656;57.746;11.780;2024-02-15T09:48:29;101456.09;;;3.65;100.00
57827;BME280;43656;57.746;11.780;2024-02-15T09:50:56;101449.09;;;3.64;100.00
57827;BME280;43656;57.746;11.780;2024-02-15T09:53:22;101445.19;;;3.68;100.00
57827;BME280;43656;57.746;11.780;2024-02-15T09:55:53;101457.50;;;3.69;100.00
57827;BME280;43656;57.746;11.780;2024-02-15T09:58:21;101456.13;;;3.75;100.00
57827;BME280;43656;57.746;11.780;2024-02-15T10:00:48;101444.63;;;3.74;100.00
57827;BME280;43656;57.746;11.780;2024-02-15T10:03:18;101443.75;;;3.74;100.00
57827;BME280;43656;57.746;11.780;2024-02-15T10:05:44;101449.81;;;3.76;100.00
57827;BME280;43656;57.746;11.780;2024-02-15T10:08:09;101450.09;;;3.83;100.00
57827;BME280;43656;57.746;11.780;2024-02-15T10:10:36;101446.44;;;3.93;100.00
57827;BME280;43656;57.746;11.780;2024-02-15T10:13:01;101443.22;;;3.80;100.00
57827;BME280;43656;57.746;11.780;2024-02-15T10:15:37;101435.94;;;3.82;100.00
57827;BME280;43656;57.746;11.780;2024-02-15T10:18:04;101443.50;;;3.77;100.00
57827;BME280;43656;57.746;11.780;2024-02-15T10:20:31;101391.66;;;3.62;100.00
57827;BME280;43656;57.746;11.780;2024-02-15T10:25:28;101423.63;;;3.91;100.00
57827;BME280;43656;57.746;11.780;2024-02-15T10:30:33;101420.25;;;3.98;100.00
57827;BME280;43656;57.746;11.780;2024-02-15T10:32:59;101419.13;;;4.01;100.00
57827;BME280;43656;57.746;11.780;2024-02-15T10:35:24;101422.91;;;4.08;100.00
57827;BME280;43656;57.746;11.780;2024-02-15T10:37:50;101401.72;;;4.07;100.00
57827;BME280;43656;57.746;11.780;2024-02-15T10:40:20;101409.84;;;4.24;100.00
57827;BME280;43656;57.746;11.780;2024-02-15T10:42:51;101402.66;;;4.35;100.00
57827;BME280;43656;57.746;11.780;2024-02-15T10:45:17;101403.94;;;4.31;100.00
57827;BME280;43656;57.746;11.780;2024-02-15T10:47:47;101393.41;;;4.29;100.00
57827;BME280;43656;57.746;11.780;2024-02-15T10:50:13;101391.47;;;4.31;100.00
57827;BME280;43656;57.746;11.780;2024-02-15T10:52:47;101389.44;;;4.43;100.00
57827;BME280;43656;57.746;11.780;2024-02-15T10:58:01;101348.00;;;4.31;100.00
57827;BME280;43656;57.746;11.780;2024-02-15T11:00:32;101358.56;;;4.50;100.00
57827;BME280;43656;57.746;11.780;2024-02-15T11:03:02;101350.00;;;4.56;100.00
57827;BME280;43656;57.746;11.780;2024-02-15T11:05:32;101353.31;;;4.68;100.00
57827;BME280;43656;57.746;11.780;2024-02-15T11:08:03;101363.91;;;4.87;100.00
57827;BME280;43656;57.746;11.780;2024-02-15T11:10:30;101356.03;;;4.86;100.00
57827;BME280;43656;57.746;11.780;2024-02-15T11:12:56;101369.91;;;4.89;100.00
57827;BME280;43656;57.746;11.780;2024-02-15T11:18:02;101369.97;;;5.07;100.00
57827;BME280;43656;57.746;11.780;2024-02-15T11:23:02;101364.34;;;5.10;100.00
57827;BME280;43656;57.746;11.780;2024-02-15T11:25:38;101377.31;;;5.23;100.00
57827;BME280;43656;57.746;11.780;2024-02-15T11:30:48;101363.63;;;5.08;100.00
57827;BME280;43656;57.746;11.780;2024-02-15T11:33:30;101358.09;;;5.19;100.00
57827;BME280;43656;57.746;11.780;2024-02-15T11:36:06;101349.53;;;5.16;100.00
57827;BME280;43656;57.746;11.780;2024-02-15T11:38:33;101352.06;;;5.17;100.00
57827;BME280;43656;57.746;11.780;2024-02-15T11:41:06;101336.81;;;5.10;100.00
57827;BME280;43656;57.746;11.780;2024-02-15T11:46:15;101329.19;;;5.15;100.00
57827;BME280;43656;57.746;11.780;2024-02-15T11:48:46;101330.34;;;5.12;100.00
57827;BME280;43656;57.746;11.780;2024-02-15T11:51:28;101347.50;;;5.46;100.00
57827;BME280;43656;57.746;11.780;2024-02-15T11:54:07;101347.56;;;5.36;100.00
57827;BME280;43656;57.746;11.780;2024-02-15T11:56:52;101345.22;;;5.51;100.00
57827;BME280;43656;57.746;11.780;2024-02-15T11:59:42;101336.22;;;5.34;100.00
57827;BME280;43656;57.746;11.780;2024-02-15T12:02:21;101332.03;;;5.31;100.00
57827;BME280;43656;57.746;11.780;2024-02-15T12:05:19;101326.09;;;5.37;100.00
57827;BME280;43656;57.746;11.780;2024-02-15T12:08:03;101329.00;;;5.44;100.00
57827;BME280;43656;57.746;11.780;2024-02-15T12:10:59;101337.53;;;5.48;100.00
57827;BME280;43656;57.746;11.780;2024-02-15T12:13:43;101321.81;;;5.45;100.00
57827;BME280;43656;57.746;11.780;2024-02-15T12:16:27;101317.25;;;5.37;100.00
57827;BME280;43656;57.746;11.780;2024-02-15T12:19:11;101313.97;;;5.25;100.00
57827;BME280;43656;57.746;11.780;2024-02-15T12:21:37;101304.28;;;5.24;100.00
57827;BME280;43656;57.746;11.780;2024-02-15T12:24:07;101313.97;;;5.25;100.00
57827;BME280;43656;57.746;11.780;2024-02-15T12:26:32;101315.69;;;5.16;100.00
57827;BME280;43656;57.746;11.780;2024-02-15T12:28:59;101315.78;;;5.25;100.00
57827;BME280;43656;57.746;11.780;2024-02-15T12:31:26;101299.09;;;5.23;100.00
57827;BME280;43656;57.746;11.780;2024-02-15T12:34:05;101318.00;;;5.11;100.00
57827;BME280;43656;57.746;11.780;2024-02-15T12:36:34;101324.69;;;5.15;100.00
57827;BME280;43656;57.746;11.780;2024-02-15T12:39:06;101303.72;;;5.03;100.00
57827;BME280;43656;57.746;11.780;2024-02-15T12:41:49;101296.06;;;4.90;100.00
57827;BME280;43656;57.746;11.780;2024-02-15T12:44:18;101323.88;;;5.15;100.00
57827;BME280;43656;57.746;11.780;2024-02-15T12:46:53;101309.75;;;5.05;100.00
57827;BME280;43656;57.746;11.780;2024-02-15T12:51:53;101314.78;;;5.08;100.00
57827;BME280;43656;57.746;11.780;2024-02-15T12:54:20;101283.59;;;4.90;100.00
57827;BME280;43656;57.746;11.780;2024-02-15T12:56:49;101322.63;;;5.09;100.00
57827;BME280;43656;57.746;11.780;2024-02-15T12:59:17;101310.81;;;4.94;100.00
57827;BME280;43656;57.746;11.780;2024-02-15T13:01:44;101312.94;;;4.90;100.00
57827;BME280;43656;57.746;11.780;2024-02-15T13:04:24;101317.28;;;4.91;100.00
57827;BME280;43656;57.746;11.780;2024-02-15T13:06:53;101313.06;;;4.89;100.00
57827;BME280;43656;57.746;11.780;2024-02-15T13:09:18;101297.00;;;4.81;100.00